Time;durP1;ratioP1;P1;durP2;ratioP2;P2;SDS_P1;SDS_P2;PMS_P1;PMS_P2;Temp;Humidity;BMP_temperature;BMP_pressure;BME280_temperature;BME280_humidity;BME280_pressure;Samples;Min_cycle;Max_cycle;Signal;HPM_P1;HPM_P2
2022/05/14 00:00:45;;;;;;;3.20;2.03;;;;;;;10.27;69.52;96962.09;2081873;28;20210;-67
2022/05/14 00:01:46;;;;;;;6.35;2.15;;;;;;;10.23;69.65;96959.66;2076868;28;20274;-67
2022/05/14 00:02:48;;;;;;;6.88;2.20;;;;;;;10.11;69.80;96959.22;2077780;28;20284;-67
2022/05/14 00:03:50;;;;;;;7.95;2.17;;;;;;;10.22;69.56;96968.38;2080163;28;20193;-67
2022/05/14 00:04:51;;;;;;;9.43;1.88;;;;;;;10.20;69.96;96965.00;2084521;28;20202;-67
2022/05/14 00:05:54;;;;;;;5.93;2.00;;;;;;;10.01;69.76;96946.59;2081204;28;20232;-67
2022/05/14 00:06:56;;;;;;;5.38;1.35;;;;;;;9.77;70.49;96967.44;2083009;28;20196;-67
2022/05/14 00:07:58;;;;;;;6.80;1.70;;;;;;;9.61;70.63;96954.09;2080694;28;20553;-67
2022/05/14 00:09:04;;;;;;;3.88;1.65;;;;;;;9.81;70.16;96969.03;2084751;28;20194;-68
2022/05/14 00:10:07;;;;;;;3.95;2.10;;;;;;;9.58;69.79;96951.59;2083229;28;20337;-67
2022/05/14 00:13:51;;;;;;;5.72;2.03;;;;;;;9.75;70.56;96974.47;2085677;28;20204;-67
2022/05/14 00:14:52;;;;;;;2.10;1.50;;;;;;;9.78;70.17;96969.16;2081303;28;20196;-67
2022/05/14 00:15:55;;;;;;;3.75;2.10;;;;;;;9.77;69.97;96957.00;2085290;28;20196;-67
2022/05/14 00:16:56;;;;;;;3.63;1.85;;;;;;;9.89;69.98;96972.22;2081152;28;20204;-67
2022/05/14 00:17:58;;;;;;;5.07;2.28;;;;;;;9.90;70.33;96973.06;2078340;28;20202;-67
2022/05/14 00:19:02;;;;;;;3.58;2.13;;;;;;;9.83;70.39;96966.34;2080451;28;20202;-67
2022/05/14 00:20:06;;;;;;;4.30;1.75;;;;;;;9.85;70.27;96974.97;2081787;28;20239;-69
2022/05/14 00:21:12;;;;;;;5.47;1.50;;;;;;;9.82;70.44;96969.88;2083018;28;20204;-70
2022/05/14 00:22:13;;;;;;;6.78;1.80;;;;;;;9.77;70.31;96973.50;2083316;28;20213;-69
2022/05/14 00:23:14;;;;;;;4.13;1.50;;;;;;;9.78;70.04;96969.97;2083241;28;20202;-69
2022/05/14 00:24:16;;;;;;;6.10;2.30;;;;;;;9.80;70.30;96968.19;2083118;28;20193;-69
2022/05/14 00:25:20;;;;;;;4.40;1.50;;;;;;;9.83;70.39;96966.34;2082785;28;20206;-69
2022/05/14 00:26:21;;;;;;;2.70;1.25;;;;;;;9.77;70.36;96959.63;2084230;28;20229;-70
2022/05/14 00:27:23;;;;;;;5.03;2.05;;;;;;;9.55;70.32;96936.06;2084807;28;20649;-69
2022/05/14 00:28:25;;;;;;;4.78;2.00;;;;;;;9.75;70.24;96964.03;2085442;28;20196;-69
2022/05/14 00:29:27;;;;;;;6.97;2.50;;;;;;;9.67;70.32;96961.69;2085359;28;20196;-69
2022/05/14 00:30:30;;;;;;;5.50;2.20;;;;;;;9.70;70.86;96972.03;2085096;28;20201;-69
2022/05/14 00:31:32;;;;;;;5.38;1.92;;;;;;;9.71;70.58;96971.09;2083556;28;20615;-70
2022/05/14 00:32:37;;;;;;;4.85;1.70;;;;;;;9.58;70.87;96944.63;2082738;28;20349;-69
2022/05/14 00:33:39;;;;;;;9.65;2.10;;;;;;;9.61;71.08;96961.91;2083835;28;20201;-70
2022/05/14 00:34:40;;;;;;;3.17;1.33;;;;;;;9.59;71.35;96967.19;2082487;28;20204;-69
2022/05/14 00:35:42;;;;;;;5.13;1.67;;;;;;;9.50;70.95;96954.50;2085763;28;20200;-69
2022/05/14 00:36:44;;;;;;;5.45;1.40;;;;;;;9.74;70.73;96965.78;2084093;28;20216;-69
2022/05/14 00:37:46;;;;;;;8.77;1.65;;;;;;;9.71;70.49;96965.06;2076092;28;20203;-69
2022/05/14 00:38:48;;;;;;;6.43;1.88;;;;;;;9.71;70.65;96965.06;2075018;28;20201;-69
2022/05/14 00:39:49;;;;;;;7.57;1.95;;;;;;;9.75;70.88;96961.41;2080511;28;20194;-69
2022/05/14 00:41:00;;;;;;;3.55;1.65;;;;;;;9.69;70.82;96966.84;2079435;28;20209;-69
2022/05/14 00:42:02;;;;;;;4.00;1.63;;;;;;;9.55;70.80;96954.31;2082354;28;20660;-69
2022/05/14 00:43:03;;;;;;;7.40;2.10;;;;;;;9.47;71.26;96938.94;2075666;28;20205;-69
2022/05/14 00:44:05;;;;;;;3.47;1.77;;;;;;;9.60;70.94;96958.47;2076695;28;20246;-70
2022/05/14 00:45:09;;;;;;;5.43;1.70;;;;;;;9.60;70.99;96970.66;2084947;28;20201;-69
2022/05/14 00:46:20;;;;;;;8.20;1.73;;;;;;;9.58;71.17;96970.69;2077691;28;20806;-69
2022/05/14 00:47:22;;;;;;;7.10;2.20;;;;;;;9.36;71.87;96935.84;2076602;28;20201;-69
2022/05/14 00:48:28;;;;;;;6.35;2.05;;;;;;;9.56;71.37;96966.44;2078773;28;20194;-69
2022/05/14 00:49:33;;;;;;;5.00;2.03;;;;;;;9.55;71.41;96957.78;2083993;28;20649;-69
2022/05/14 00:50:43;;;;;;;4.15;1.40;;;;;;;9.58;71.73;96959.44;2075429;28;20219;-69
2022/05/14 00:51:45;;;;;;;6.03;2.33;;;;;;;9.59;71.87;96961.97;2075938;28;20233;-69
2022/05/14 00:52:47;;;;;;;3.00;1.80;;;;;;;9.51;72.19;96956.19;2084929;28;20591;-69
2022/05/14 00:53:53;;;;;;;5.70;2.15;;;;;;;9.52;71.93;96960.47;2085768;28;20211;-69
2022/05/14 00:55:00;;;;;;;8.52;2.20;;;;;;;9.55;72.22;96959.53;2083477;28;20200;-69
2022/05/14 00:56:05;;;;;;;6.72;2.70;;;;;;;9.56;71.83;96958.63;2089029;28;20199;-69
2022/05/14 00:57:10;;;;;;;7.88;1.77;;;;;;;9.57;72.04;96962.94;2089467;28;20204;-69
2022/05/14 00:58:25;;;;;;;9.65;2.20;;;;;;;9.48;71.77;96946.72;2085616;28;20188;-69
2022/05/14 00:59:27;;;;;;;3.80;1.67;;;;;;;9.57;71.68;96961.19;2081301;28;20528;-70
2022/05/14 01:00:29;;;;;;;4.32;2.40;;;;;;;9.60;71.87;96965.44;2082940;28;20211;-69
2022/05/14 01:01:30;;;;;;;6.78;2.05;;;;;;;9.52;71.83;96957.03;2084242;28;20232;-69
2022/05/14 01:02:32;;;;;;;9.93;1.90;;;;;;;9.39;71.70;96941.81;2085935;28;20294;-70
2022/05/14 01:03:34;;;;;;;4.30;2.25;;;;;;;9.44;71.80;96949.50;2083888;28;20193;-69
2022/05/14 01:04:40;;;;;;;4.88;2.78;;;;;;;9.13;72.02;96934.94;2083100;28;20200;-69
2022/05/14 01:05:42;;;;;;;6.63;2.80;;;;;;;9.32;72.04;96954.22;2082568;28;20196;-69
2022/05/14 01:06:51;;;;;;;8.13;2.78;;;;;;;9.37;72.19;96955.81;2081238;28;20248;-69
2022/05/14 01:07:55;;;;;;;7.20;2.17;;;;;;;9.40;72.21;96953.13;2082531;28;20209;-69
2022/05/14 01:09:00;;;;;;;5.03;2.53;;;;;;;9.36;72.74;96954.09;2082934;28;20201;-69
2022/05/14 01:10:03;;;;;;;5.60;2.17;;;;;;;9.30;72.48;96929.97;2082738;28;20652;-69
2022/05/14 01:11:05;;;;;;;5.30;1.90;;;;;;;9.37;72.50;96950.59;2079306;28;20230;-69
2022/05/14 01:12:07;;;;;;;3.95;2.13;;;;;;;9.37;72.50;96948.88;2074662;28;20198;-69
2022/05/14 01:13:09;;;;;;;9.20;2.30;;;;;;;9.41;71.98;96950.44;2075009;28;20213;-69
2022/05/14 01:14:11;;;;;;;8.95;2.75;;;;;;;9.35;72.35;96952.44;2084452;28;20200;-69
2022/05/14 01:15:18;;;;;;;5.25;2.28;;;;;;;9.36;72.27;96956.72;2079242;28;20676;-69
2022/05/14 01:16:20;;;;;;;4.43;2.22;;;;;;;9.27;72.50;96952.69;2078491;28;20597;-69
2022/05/14 01:17:21;;;;;;;4.38;2.50;;;;;;;9.20;72.68;96945.97;2082473;28;20209;-69
2022/05/14 01:18:26;;;;;;;7.47;2.58;;;;;;;9.11;72.95;96947.16;2084322;28;20197;-69
2022/05/14 01:19:28;;;;;;;8.73;2.33;;;;;;;9.28;72.72;96947.44;2080378;28;20206;-69
2022/05/14 01:20:35;;;;;;;5.05;2.33;;;;;;;9.30;72.25;96952.56;2081041;28;20240;-69
2022/05/14 01:22:03;;;;;;;5.93;1.92;;;;;;;9.28;72.29;96951.78;2081404;28;20227;-69
2022/05/14 01:23:22;;;;;;;3.72;2.20;;;;;;;9.28;72.37;96946.56;2080794;28;20875;-69
2022/05/14 01:26:29;;;;;;;6.15;1.90;;;;;;;9.25;72.78;96951.88;2077918;28;20663;-69
2022/05/14 01:27:30;;;;;;;8.07;2.15;;;;;;;9.22;72.81;96959.78;2085121;28;20207;-69
2022/05/14 01:28:32;;;;;;;7.00;1.98;;;;;;;9.10;72.81;96942.84;2084365;28;20193;-69
2022/05/14 01:29:34;;;;;;;7.45;2.45;;;;;;;9.03;72.76;96931.78;2082226;28;20263;-69
2022/05/14 01:30:50;;;;;;;8.25;2.00;;;;;;;9.04;73.14;96950.84;2073902;28;20208;-69
2022/05/14 01:31:54;;;;;;;6.35;2.15;;;;;;;9.12;73.29;96957.50;2068926;28;20265;-69
2022/05/14 01:33:05;;;;;;;7.88;1.95;;;;;;;9.03;73.14;96939.59;2084274;28;20227;-69
2022/05/14 01:34:12;;;;;;;3.80;1.85;;;;;;;9.12;73.32;96956.66;2085464;28;20804;-68
2022/05/14 01:35:15;;;;;;;4.50;2.20;;;;;;;9.07;73.12;96955.97;2077447;28;20565;-69
2022/05/14 01:36:17;;;;;;;8.43;2.13;;;;;;;9.12;73.06;96952.31;2079783;28;20244;-69
2022/05/14 01:37:20;;;;;;;3.70;1.73;;;;;;;9.02;73.45;96950.91;2083388;28;20201;-68
2022/05/14 01:38:23;;;;;;;6.13;2.13;;;;;;;9.01;73.55;96957.03;2086185;28;20684;-68
2022/05/14 01:39:26;;;;;;;4.22;2.25;;;;;;;8.96;73.73;96957.19;2083690;28;20697;-69
2022/05/14 01:40:29;;;;;;;4.22;2.13;;;;;;;8.91;73.66;96956.50;2080105;28;20204;-69
2022/05/14 01:41:30;;;;;;;5.90;2.45;;;;;;;8.88;73.89;96959.19;2085422;28;20216;-69
2022/05/14 01:42:32;;;;;;;8.25;2.60;;;;;;;8.94;73.47;96956.38;2080979;28;20209;-69
2022/05/14 01:43:33;;;;;;;5.07;2.00;;;;;;;8.87;73.64;96965.28;2082720;28;20247;-69
2022/05/14 01:44:35;;;;;;;5.43;2.05;;;;;;;8.75;73.75;96937.06;2082652;28;20212;-69
2022/05/14 01:45:36;;;;;;;7.18;2.60;;;;;;;8.72;73.72;96937.16;2072724;28;20197;-69
2022/05/14 01:46:38;;;;;;;7.07;2.22;;;;;;;8.61;74.15;96932.31;2072052;28;20680;-69
2022/05/14 01:47:40;;;;;;;4.85;2.13;;;;;;;8.80;73.83;96959.44;2081149;28;20212;-69
2022/05/14 01:48:41;;;;;;;4.22;1.70;;;;;;;8.88;73.73;96946.16;2083937;28;20204;-68
2022/05/14 01:49:43;;;;;;;2.97;1.90;;;;;;;8.89;73.56;96950.47;2082554;28;20208;-68
2022/05/14 01:50:44;;;;;;;5.60;2.15;;;;;;;8.82;73.59;96952.44;2083895;28;20196;-69
2022/05/14 01:51:46;;;;;;;5.22;1.92;;;;;;;8.81;73.48;96936.84;2082807;28;20235;-68
2022/05/14 01:52:47;;;;;;;9.13;2.30;;;;;;;8.89;73.17;96954.81;2083385;28;20193;-69
2022/05/14 01:53:51;;;;;;;4.38;2.38;;;;;;;8.76;73.33;96931.81;2082983;28;20196;-68
2022/05/14 01:54:52;;;;;;;7.22;2.20;;;;;;;8.89;73.49;96950.47;2084023;28;20201;-69
2022/05/14 01:55:54;;;;;;;5.80;2.80;;;;;;;8.89;73.42;96941.78;2084701;28;20196;-68
2022/05/14 01:56:55;;;;;;;4.07;2.58;;;;;;;8.78;73.81;96947.38;2086509;28;20208;-69
2022/05/14 01:57:57;;;;;;;8.20;2.25;;;;;;;8.65;73.85;96957.34;2078946;28;20204;-69
2022/05/14 01:58:58;;;;;;;3.67;2.05;;;;;;;8.57;74.14;96943.69;2081657;28;20204;-69
2022/05/14 02:00:21;;;;;;;8.85;1.98;;;;;;;8.67;74.32;96952.91;2083212;28;20247;-69
2022/05/14 02:01:24;;;;;;;4.05;1.73;;;;;;;8.70;74.15;96951.97;2065862;28;20222;-69
2022/05/14 02:02:26;;;;;;;10.70;2.60;;;;;;;8.53;74.00;96929.91;2066482;28;20229;-69
2022/05/14 02:03:27;;;;;;;5.25;2.00;;;;;;;8.63;74.12;96941.78;2082367;28;20598;-69
2022/05/14 02:04:29;;;;;;;6.72;2.05;;;;;;;8.66;74.20;96948.63;2084723;28;20197;-69
2022/05/14 02:05:31;;;;;;;5.38;1.88;;;;;;;8.54;74.16;96949.00;2084607;28;20761;-69
2022/05/14 02:06:33;;;;;;;10.15;2.58;;;;;;;8.54;73.80;96949.00;2081807;28;20242;-69
2022/05/14 02:07:35;;;;;;;10.30;1.83;;;;;;;8.50;74.04;96943.06;2083893;28;20223;-69
2022/05/14 02:08:36;;;;;;;4.55;2.30;;;;;;;8.55;74.06;96954.16;2083183;28;20296;-69
2022/05/14 02:09:38;;;;;;;6.15;2.10;;;;;;;8.54;74.01;96949.84;2083212;28;20200;-69
2022/05/14 02:10:39;;;;;;;3.47;1.63;;;;;;;8.46;74.18;96934.47;2084121;28;20207;-69
2022/05/14 02:11:42;;;;;;;8.77;2.30;;;;;;;8.51;73.64;96929.13;2085599;28;20212;-69
2022/05/14 02:12:44;;;;;;;3.47;2.00;;;;;;;8.57;73.71;96948.91;2086923;28;20189;-68
2022/05/14 02:13:48;;;;;;;4.03;2.03;;;;;;;8.52;74.16;96946.47;2085037;28;20200;-68
2022/05/14 02:14:49;;;;;;;6.80;2.22;;;;;;;8.54;73.55;96936.00;2084001;28;20714;-68
2022/05/14 02:15:52;;;;;;;12.35;2.70;;;;;;;8.34;73.88;96914.88;2081648;28;20203;-68
2022/05/14 02:16:53;;;;;;;5.20;2.80;;;;;;;8.59;73.61;96947.94;2085365;28;20211;-68
2022/05/14 02:17:57;;;;;;;6.45;2.60;;;;;;;8.46;73.25;96929.28;2084786;28;20423;-69
2022/05/14 02:18:58;;;;;;;4.10;1.90;;;;;;;8.56;73.55;96942.84;2081915;28;20208;-67
2022/05/14 02:20:00;;;;;;;4.57;2.05;;;;;;;8.50;73.79;96943.06;2085194;28;20236;-66
2022/05/14 02:21:03;;;;;;;7.93;2.65;;;;;;;8.46;73.93;96941.44;2085936;28;20201;-67
2022/05/14 02:22:05;;;;;;;6.60;1.95;;;;;;;8.57;73.58;96956.72;2086004;28;20233;-67
2022/05/14 02:23:07;;;;;;;7.03;2.47;;;;;;;8.49;73.51;96941.34;2086794;28;20216;-67
2022/05/14 02:24:08;;;;;;;14.02;2.20;;;;;;;8.54;73.80;96947.25;2086647;28;20199;-66
2022/05/14 02:25:10;;;;;;;6.20;2.08;;;;;;;8.45;74.10;96942.31;2085489;28;20205;-67
2022/05/14 02:26:13;;;;;;;8.10;2.35;;;;;;;8.49;74.20;96957.81;2081106;28;20821;-67
2022/05/14 02:27:14;;;;;;;4.60;2.17;;;;;;;8.44;74.37;96956.22;2081116;28;20201;-67
2022/05/14 02:28:16;;;;;;;4.70;1.80;;;;;;;8.40;74.36;96959.81;2079683;28;20201;-67
2022/05/14 02:29:17;;;;;;;5.18;2.83;;;;;;;8.25;74.92;96956.81;2081080;28;20196;-67
2022/05/14 02:30:19;;;;;;;3.65;1.50;;;;;;;8.21;75.03;96949.13;2082658;28;20201;-67
2022/05/14 02:31:21;;;;;;;7.15;1.90;;;;;;;8.14;75.33;96954.50;2082272;28;20227;-67
2022/05/14 02:32:25;;;;;;;9.75;2.22;;;;;;;8.13;75.17;96946.75;2082825;28;20668;-67
2022/05/14 02:33:27;;;;;;;6.25;2.22;;;;;;;8.06;75.17;96947.84;2083451;28;20207;-67
2022/05/14 02:34:29;;;;;;;7.10;2.45;;;;;;;8.09;74.81;96959.00;2085062;28;20204;-67
2022/05/14 02:35:31;;;;;;;4.25;1.80;;;;;;;8.13;74.59;96959.75;2086761;28;20413;-67
2022/05/14 02:36:32;;;;;;;5.20;2.50;;;;;;;8.11;74.79;96957.22;2084830;28;20224;-67
2022/05/14 02:37:34;;;;;;;3.10;2.08;;;;;;;8.18;74.50;96960.47;2076688;28;20248;-67
2022/05/14 02:38:36;;;;;;;5.70;2.50;;;;;;;8.13;74.52;96941.56;2076439;28;20414;-67
2022/05/14 02:39:38;;;;;;;6.47;2.17;;;;;;;8.23;74.57;96948.19;2080952;28;20193;-67
2022/05/14 02:40:39;;;;;;;5.50;2.28;;;;;;;8.23;74.51;96952.50;2084887;28;20196;-66
2022/05/14 02:41:41;;;;;;;3.25;2.20;;;;;;;8.25;73.94;96946.41;2090472;28;20637;-67
2022/05/14 02:42:42;;;;;;;3.28;1.80;;;;;;;8.16;73.86;96931.03;2087858;28;20205;-67
2022/05/14 02:43:44;;;;;;;6.15;1.70;;;;;;;8.18;73.76;96934.47;2085463;28;20200;-67
2022/05/14 02:44:45;;;;;;;5.30;2.35;;;;;;;8.13;73.99;96933.75;2071973;28;20202;-67
2022/05/14 02:45:47;;;;;;;4.13;1.90;;;;;;;8.13;74.07;96938.97;2071923;28;20202;-67
2022/05/14 02:46:48;;;;;;;6.18;2.10;;;;;;;8.21;74.05;96955.16;2083923;28;20224;-67
2022/05/14 02:47:50;;;;;;;4.38;2.20;;;;;;;8.13;74.63;96954.56;2083041;28;20193;-67
2022/05/14 02:48:52;;;;;;;5.70;2.05;;;;;;;7.96;74.34;96935.09;2081954;28;20200;-67
2022/05/14 02:49:53;;;;;;;10.27;2.13;;;;;;;8.01;74.19;96946.22;2081753;28;20658;-67
2022/05/14 02:50:57;;;;;;;5.82;2.13;;;;;;;8.01;74.13;96948.81;2083266;28;20201;-67
2022/05/14 02:51:58;;;;;;;5.05;2.55;;;;;;;7.91;74.58;96938.72;2084217;28;20196;-67
2022/05/14 02:53:00;;;;;;;3.83;2.00;;;;;;;8.01;74.57;96951.44;2083945;28;20196;-66
2022/05/14 02:54:01;;;;;;;4.80;2.47;;;;;;;8.08;74.51;96953.84;2081984;28;20626;-66
2022/05/14 02:55:04;;;;;;;4.32;2.03;;;;;;;8.08;74.46;96954.69;2079564;28;20201;-66
2022/05/14 02:56:05;;;;;;;3.28;1.85;;;;;;;7.88;74.31;96931.03;2079692;28;20193;-67
2022/05/14 02:57:08;;;;;;;6.03;2.53;;;;;;;8.04;74.29;96957.41;2080601;28;20201;-68
2022/05/14 02:58:10;;;;;;;4.18;2.05;;;;;;;7.96;74.37;96948.13;2075543;28;20201;-67
2022/05/14 02:59:12;;;;;;;12.50;2.35;;;;;;;7.97;74.56;96957.63;2076713;28;20267;-67
2022/05/14 03:00:17;;;;;;;3.85;2.22;;;;;;;7.96;74.46;96953.31;2076197;28;20856;-67
2022/05/14 03:01:19;;;;;;;14.40;2.20;;;;;;;7.91;74.23;96951.72;2083521;28;20216;-67
2022/05/14 03:02:20;;;;;;;5.45;2.00;;;;;;;7.85;74.65;96958.81;2077802;28;20193;-67
2022/05/14 03:03:22;;;;;;;7.60;2.00;;;;;;;7.90;75.37;96963.03;2080589;28;20206;-67
2022/05/14 03:04:30;;;;;;;2.20;1.45;;;;;;;7.87;75.14;96956.16;2083198;28;20204;-67
2022/05/14 03:05:32;;;;;;;7.28;1.85;;;;;;;7.73;74.86;96947.91;2084754;28;20216;-67
2022/05/14 03:06:33;;;;;;;3.28;1.80;;;;;;;7.77;74.15;96946.94;2080864;28;20221;-67
2022/05/14 03:07:35;;;;;;;4.45;2.88;;;;;;;7.53;73.60;96920.75;2086242;28;20199;-67
2022/05/14 03:08:37;;;;;;;4.82;1.80;;;;;;;7.59;73.69;96951.78;2087897;28;20227;-67
2022/05/14 03:09:39;;;;;;;3.53;1.83;;;;;;;7.72;74.14;96954.00;2087030;28;20197;-67
2022/05/14 03:10:41;;;;;;;6.00;1.92;;;;;;;7.57;74.41;96932.75;2084783;28;20209;-66
2022/05/14 03:11:43;;;;;;;6.18;2.10;;;;;;;7.78;73.88;96952.09;2081930;28;20223;-67
2022/05/14 03:12:45;;;;;;;6.38;2.10;;;;;;;7.71;73.72;96923.69;2081030;28;20197;-67
2022/05/14 03:13:46;;;;;;;4.07;2.05;;;;;;;7.83;73.80;96946.75;2077510;28;20201;-67
2022/05/14 03:14:49;;;;;;;3.97;1.73;;;;;;;7.74;73.78;96939.22;2071869;28;20197;-66
2022/05/14 03:15:50;;;;;;;6.63;2.30;;;;;;;7.86;73.70;96949.28;2083001;28;20663;-67
2022/05/14 03:16:52;;;;;;;5.88;2.00;;;;;;;7.85;73.48;96934.56;2071227;28;20597;-67
2022/05/14 03:17:57;;;;;;;4.35;1.92;;;;;;;7.79;74.11;96950.34;2079609;28;20204;-67
2022/05/14 03:18:59;;;;;;;4.38;1.73;;;;;;;7.74;74.46;96945.25;2079661;28;20205;-67
2022/05/14 03:20:09;;;;;;;8.68;2.15;;;;;;;7.73;74.26;96945.31;2079607;28;20279;-67
2022/05/14 03:21:11;;;;;;;3.40;1.90;;;;;;;7.65;74.62;96954.16;2092922;28;20238;-67
2022/05/14 03:22:12;;;;;;;4.85;2.10;;;;;;;7.73;74.89;96955.72;2094345;28;20204;-67
2022/05/14 03:23:15;;;;;;;4.82;2.20;;;;;;;7.74;75.16;96955.66;2084374;28;20200;-67
2022/05/14 03:24:17;;;;;;;5.47;2.10;;;;;;;7.66;75.42;96950.69;2082768;28;20681;-67
2022/05/14 03:25:19;;;;;;;6.88;2.25;;;;;;;7.63;74.91;96955.13;2083833;28;20206;-67
2022/05/14 03:26:20;;;;;;;6.28;2.38;;;;;;;7.51;75.16;96938.13;2082156;28;20247;-67
2022/05/14 03:27:22;;;;;;;5.53;2.28;;;;;;;7.48;76.35;96953.81;2084662;28;20868;-67
2022/05/14 03:28:24;;;;;;;4.25;2.33;;;;;;;7.44;75.82;96947.84;2083636;28;20197;-67
2022/05/14 03:29:25;;;;;;;4.63;2.17;;;;;;;7.49;75.44;96952.91;2086270;28;20199;-67
2022/05/14 03:30:27;;;;;;;3.45;1.90;;;;;;;7.51;75.16;96953.72;2083883;28;20196;-67
2022/05/14 03:31:29;;;;;;;5.30;2.50;;;;;;;7.41;75.38;96939.28;2080987;28;20465;-67
2022/05/14 03:32:31;;;;;;;5.45;1.88;;;;;;;7.60;75.18;96956.06;2084520;28;20208;-67
2022/05/14 03:33:32;;;;;;;7.80;2.50;;;;;;;7.60;74.81;96955.22;2086467;28;20195;-67
2022/05/14 03:34:36;;;;;;;8.85;1.65;;;;;;;7.48;75.00;96923.47;2082478;28;20196;-67
2022/05/14 03:35:37;;;;;;;3.35;1.70;;;;;;;7.56;74.80;96943.22;2082622;28;20200;-67
2022/05/14 03:36:40;;;;;;;5.05;1.70;;;;;;;7.45;74.46;96927.91;2081504;28;20215;-66
2022/05/14 03:37:41;;;;;;;6.88;1.90;;;;;;;7.71;74.24;96953.16;2084897;28;20208;-67
2022/05/14 03:38:43;;;;;;;9.13;3.00;;;;;;;7.65;74.00;96928.19;2084623;28;20661;-66
2022/05/14 03:39:44;;;;;;;9.45;2.38;;;;;;;7.59;74.34;96930.13;2075659;28;20208;-67
2022/05/14 03:40:47;;;;;;;10.65;2.40;;;;;;;7.74;74.47;96955.66;2074159;28;20228;-67
2022/05/14 03:41:48;;;;;;;4.80;2.35;;;;;;;7.61;74.94;96944.75;2073815;28;20217;-67
2022/05/14 03:42:50;;;;;;;9.93;3.15;;;;;;;7.72;74.55;96946.22;2076970;28;20208;-67
2022/05/14 03:43:52;;;;;;;5.15;2.25;;;;;;;7.75;74.49;96952.19;2093161;28;20797;-67
2022/05/14 03:44:54;;;;;;;7.90;2.90;;;;;;;7.79;74.72;96955.53;2083940;28;20205;-66
2022/05/14 03:45:55;;;;;;;5.97;2.10;;;;;;;7.73;74.54;96953.97;2083171;28;20644;-67
2022/05/14 03:47:03;;;;;;;5.00;1.92;;;;;;;7.58;75.38;96941.41;2082213;28;20197;-67
2022/05/14 03:48:05;;;;;;;5.22;2.88;;;;;;;7.67;75.66;96959.34;2082446;28;20196;-67
2022/05/14 03:49:06;;;;;;;6.65;1.70;;;;;;;7.52;75.23;96924.25;2083894;28;20200;-67
2022/05/14 03:50:08;;;;;;;4.72;2.40;;;;;;;7.66;75.20;96942.88;2084399;28;20197;-67
2022/05/14 03:51:10;;;;;;;4.30;1.52;;;;;;;7.66;74.87;96945.50;2084793;28;20709;-67
2022/05/14 03:52:12;;;;;;;3.17;1.45;;;;;;;7.72;74.84;96954.88;2085011;28;20554;-67
2022/05/14 03:53:13;;;;;;;4.45;1.92;;;;;;;7.77;74.84;96960.78;2080767;28;20200;-68
2022/05/14 03:54:15;;;;;;;7.47;1.55;;;;;;;7.88;74.57;96957.03;2081409;28;20203;-67
2022/05/14 03:55:16;;;;;;;3.85;2.17;;;;;;;7.92;74.50;96956.03;2085399;28;20208;-67
2022/05/14 03:56:18;;;;;;;6.78;2.83;;;;;;;7.88;74.62;96963.06;2084277;28;20254;-67
2022/05/14 03:57:20;;;;;;;7.70;2.00;;;;;;;7.65;74.54;96919.53;2081625;28;20212;-67
2022/05/14 03:58:22;;;;;;;6.13;2.03;;;;;;;7.80;75.07;96958.09;2092731;28;20198;-67
2022/05/14 03:59:24;;;;;;;8.70;1.67;;;;;;;7.78;75.04;96956.44;2086632;28;20211;-67
2022/05/14 04:00:25;;;;;;;10.40;2.35;;;;;;;7.61;75.54;96936.97;2077161;28;20212;-67
2022/05/14 04:01:27;;;;;;;6.70;2.20;;;;;;;7.82;75.59;96963.25;2080330;28;20235;-68
2022/05/14 04:02:28;;;;;;;8.70;2.58;;;;;;;7.73;75.60;96942.72;2082385;28;20261;-67
2022/05/14 04:03:32;;;;;;;8.27;2.30;;;;;;;7.75;75.80;96952.19;2083842;28;20200;-68
2022/05/14 04:04:34;;;;;;;5.13;2.38;;;;;;;7.75;76.02;96957.38;2085685;28;20253;-67
2022/05/14 04:05:35;;;;;;;3.83;1.90;;;;;;;7.65;76.11;96940.34;2086946;28;20204;-67
2022/05/14 04:06:37;;;;;;;6.10;2.72;;;;;;;7.81;75.92;96959.81;2085304;28;20264;-67
2022/05/14 04:07:38;;;;;;;5.28;2.55;;;;;;;7.57;76.04;96931.88;2083057;28;20201;-67
2022/05/14 04:08:40;;;;;;;6.10;2.15;;;;;;;7.74;75.73;96944.44;2074777;28;20296;-67
2022/05/14 04:09:42;;;;;;;5.95;3.00;;;;;;;7.84;75.78;96953.66;2071033;28;20209;-67
2022/05/14 04:10:45;;;;;;;4.30;2.22;;;;;;;7.75;75.38;96926.19;2083386;28;20760;-67
2022/05/14 04:11:47;;;;;;;10.13;2.13;;;;;;;7.87;75.15;96952.72;2082846;28;20240;-67
2022/05/14 04:12:48;;;;;;;6.68;2.35;;;;;;;7.84;75.46;96946.69;2085649;28;20200;-67
2022/05/14 04:13:50;;;;;;;5.78;2.13;;;;;;;7.89;75.34;96954.38;2086375;28;20228;-67
2022/05/14 04:14:51;;;;;;;6.53;2.47;;;;;;;7.92;75.49;96956.91;2085408;28;20197;-68
2022/05/14 04:15:53;;;;;;;8.68;2.40;;;;;;;7.87;75.54;96948.34;2083722;28;20197;-67
2022/05/14 04:16:55;;;;;;;3.35;2.47;;;;;;;7.71;75.80;96929.78;2084410;28;20199;-67
2022/05/14 04:17:56;;;;;;;4.97;2.65;;;;;;;7.73;75.96;96948.75;2082585;28;20232;-67
2022/05/14 04:19:01;;;;;;;4.15;2.58;;;;;;;7.83;75.44;96954.56;2083468;28;20200;-67
2022/05/14 04:20:05;;;;;;;4.25;2.17;;;;;;;7.85;74.97;96948.41;2083299;28;20326;-67
2022/05/14 04:21:07;;;;;;;3.75;1.90;;;;;;;7.86;75.14;96962.28;2083623;28;21239;-67
2022/05/14 04:22:08;;;;;;;6.05;2.55;;;;;;;7.77;75.76;96959.94;2084752;28;20196;-67
2022/05/14 04:23:10;;;;;;;3.90;2.70;;;;;;;7.54;76.56;96943.22;2083525;28;20201;-67
2022/05/14 04:24:11;;;;;;;4.95;2.00;;;;;;;7.58;76.25;96946.59;2080950;28;20568;-67
2022/05/14 04:25:13;;;;;;;8.35;2.28;;;;;;;7.28;76.03;96892.00;2080119;28;20228;-67
2022/05/14 04:26:16;;;;;;;3.10;1.92;;;;;;;7.71;76.36;96960.09;2082202;28;20221;-67
2022/05/14 04:27:17;;;;;;;6.10;1.88;;;;;;;7.72;76.21;96952.28;2084366;28;20208;-67
2022/05/14 04:28:20;;;;;;;3.75;1.48;;;;;;;7.76;76.37;96955.66;2080356;28;20204;-67
2022/05/14 04:29:21;;;;;;;4.53;2.20;;;;;;;7.63;76.32;96930.00;2078018;28;20553;-67
2022/05/14 04:30:23;;;;;;;4.20;1.75;;;;;;;7.81;76.05;96954.59;2085187;28;20390;-67
2022/05/14 04:31:24;;;;;;;8.45;2.22;;;;;;;7.48;76.67;96931.28;2080157;28;20230;-67
2022/05/14 04:32:26;;;;;;;6.82;1.77;;;;;;;7.54;76.52;96948.41;2082127;28;20674;-67
2022/05/14 04:33:28;;;;;;;6.40;2.20;;;;;;;7.38;75.55;96939.34;2083117;28;20193;-68
2022/05/14 04:34:29;;;;;;;3.25;1.95;;;;;;;7.60;75.38;96948.25;2083263;28;20192;-68
2022/05/14 04:35:31;;;;;;;5.55;2.17;;;;;;;7.72;74.37;96949.69;2083558;28;20196;-67
2022/05/14 04:36:32;;;;;;;7.10;2.03;;;;;;;7.78;73.76;96957.31;2082414;28;20240;-67
2022/05/14 04:37:35;;;;;;;3.40;1.58;;;;;;;7.63;73.52;96952.50;2083895;28;20204;-67
2022/05/14 04:38:36;;;;;;;5.05;1.60;;;;;;;7.46;73.58;96953.00;2080827;28;20203;-68
2022/05/14 04:39:39;;;;;;;3.45;1.60;;;;;;;7.53;73.27;96954.53;2083274;28;20200;-67
2022/05/14 04:40:41;;;;;;;4.35;1.48;;;;;;;7.62;72.65;96954.28;2083481;28;20275;-67
2022/05/14 04:41:42;;;;;;;11.30;2.40;;;;;;;7.66;72.73;96953.28;2082404;28;20220;-67
2022/05/14 04:42:46;;;;;;;4.25;1.50;;;;;;;7.64;72.83;96955.09;2080764;28;20197;-67
2022/05/14 04:43:48;;;;;;;3.92;1.80;;;;;;;7.50;73.06;96939.00;2081653;28;20208;-68
2022/05/14 04:44:49;;;;;;;4.07;2.15;;;;;;;7.33;73.63;96942.94;2082602;28;20728;-67
2022/05/14 04:45:51;;;;;;;3.90;2.65;;;;;;;7.29;74.52;96954.31;2080387;28;20208;-67
2022/05/14 04:46:53;;;;;;;3.40;1.83;;;;;;;7.50;74.03;96955.47;2083349;28;20237;-67
2022/05/14 04:47:54;;;;;;;4.35;1.80;;;;;;;7.66;73.61;96950.69;2084681;28;20552;-68
2022/05/14 04:48:56;;;;;;;3.80;1.65;;;;;;;7.76;73.98;96964.28;2079366;28;20192;-67
2022/05/14 04:49:57;;;;;;;6.38;1.95;;;;;;;7.79;74.43;96958.97;2081400;28;20211;-67
2022/05/14 04:50:59;;;;;;;3.60;1.55;;;;;;;7.72;74.35;96941.00;2077482;28;20651;-67
2022/05/14 04:52:00;;;;;;;3.67;1.67;;;;;;;7.88;74.17;96957.88;2076432;28;20208;-67
2022/05/14 04:53:02;;;;;;;4.45;1.80;;;;;;;7.81;74.31;96930.38;2079582;28;20201;-67
2022/05/14 04:54:03;;;;;;;5.10;2.00;;;;;;;8.09;74.36;96959.00;2080736;28;20200;-67
2022/05/14 04:55:06;;;;;;;3.47;1.70;;;;;;;8.21;73.98;96970.78;2082616;28;20236;-67
2022/05/14 04:56:07;;;;;;;3.42;1.83;;;;;;;8.11;75.05;96961.56;2084417;28;20197;-67
2022/05/14 04:57:09;;;;;;;5.53;2.55;;;;;;;8.17;75.24;96971.78;2079026;28;20201;-67
2022/05/14 04:58:11;;;;;;;2.95;2.03;;;;;;;8.22;75.24;96966.44;2081380;28;20208;-68
2022/05/14 04:59:19;;;;;;;5.45;2.15;;;;;;;8.32;75.19;96971.31;2084488;28;20207;-67
2022/05/14 05:00:20;;;;;;;3.13;1.50;;;;;;;8.13;76.08;96971.00;2082433;28;20193;-67
2022/05/14 05:01:22;;;;;;;5.38;2.17;;;;;;;7.97;76.37;96941.16;2080652;28;20231;-68
2022/05/14 05:03:43;;;;;;;5.43;2.42;;;;;;;8.30;75.48;96949.72;2083968;28;20192;-67
2022/05/14 05:04:44;;;;;;;7.93;1.98;;;;;;;8.51;75.03;96968.19;2081085;28;20239;-67